sensor_id;sensor_type;location;lat;lon;timestamp;P1;durP1;ratioP1;P2;durP2;ratioP2
4700;SDS011;8724;51.272;6.554;2023-03-31T00:01:08;3.90;;;1.20;;
4700;SDS011;8724;51.272;6.554;2023-03-31T00:03:36;3.00;;;1.40;;
4700;SDS011;8724;51.272;6.554;2023-03-31T00:06:10;1.63;;;1.20;;
4700;SDS011;8724;51.272;6.554;2023-03-31T00:08:44;3.30;;;1.37;;
4700;SDS011;8724;51.272;6.554;2023-03-31T00:11:18;1.80;;;1.07;;
4700;SDS011;8724;51.272;6.554;2023-03-31T00:13:48;3.13;;;1.40;;
4700;SDS011;8724;51.272;6.554;2023-03-31T00:16:17;2.57;;;1.10;;
4700;SDS011;8724;51.272;6.554;2023-03-31T00:18:46;1.57;;;1.33;;
4700;SDS011;8724;51.272;6.554;2023-03-31T00:21:17;3.50;;;2.37;;
4700;SDS011;8724;51.272;6.554;2023-03-31T00:24:00;5.77;;;1.30;;
4700;SDS011;8724;51.272;6.554;2023-03-31T00:26:29;2.53;;;1.20;;
4700;SDS011;8724;51.272;6.554;2023-03-31T00:28:58;3.10;;;1.60;;
4700;SDS011;8724;51.272;6.554;2023-03-31T00:31:29;3.30;;;1.50;;
4700;SDS011;8724;51.272;6.554;2023-03-31T00:33:58;4.27;;;1.63;;
4700;SDS011;8724;51.272;6.554;2023-03-31T00:36:26;2.77;;;1.80;;
4700;SDS011;8724;51.272;6.554;2023-03-31T00:38:55;3.20;;;1.37;;
4700;SDS011;8724;51.272;6.554;2023-03-31T00:41:26;2.60;;;1.60;;
4700;SDS011;8724;51.272;6.554;2023-03-31T00:43:59;5.83;;;1.50;;
4700;SDS011;8724;51.272;6.554;2023-03-31T00:46:33;3.37;;;1.60;;
4700;SDS011;8724;51.272;6.554;2023-03-31T00:49:08;3.17;;;1.10;;
4700;SDS011;8724;51.272;6.554;2023-03-31T00:51:43;2.50;;;1.40;;
4700;SDS011;8724;51.272;6.554;2023-03-31T00:54:12;2.93;;;1.57;;
4700;SDS011;8724;51.272;6.554;2023-03-31T00:56:42;6.03;;;1.60;;
4700;SDS011;8724;51.272;6.554;2023-03-31T00:59:14;2.47;;;1.27;;
4700;SDS011;8724;51.272;6.554;2023-03-31T01:01:45;6.70;;;1.80;;
4700;SDS011;8724;51.272;6.554;2023-03-31T01:04:18;3.97;;;1.43;;
4700;SDS011;8724;51.272;6.554;2023-03-31T01:06:50;2.03;;;1.60;;
4700;SDS011;8724;51.272;6.554;2023-03-31T01:09:26;3.57;;;1.37;;
4700;SDS011;8724;51.272;6.554;2023-03-31T01:12:02;1.97;;;1.10;;
4700;SDS011;8724;51.272;6.554;2023-03-31T01:14:33;4.47;;;1.47;;
4700;SDS011;8724;51.272;6.554;2023-03-31T01:17:04;2.80;;;1.60;;
4700;SDS011;8724;51.272;6.554;2023-03-31T01:19:40;3.27;;;1.20;;
4700;SDS011;8724;51.272;6.554;2023-03-31T01:25:32;4.40;;;1.27;;
4700;SDS011;8724;51.272;6.554;2023-03-31T01:28:22;2.80;;;1.20;;
4700;SDS011;8724;51.272;6.554;2023-03-31T01:37:48;4.37;;;1.10;;
4700;SDS011;8724;51.272;6.554;2023-03-31T01:40:36;1.50;;;1.10;;
4700;SDS011;8724;51.272;6.554;2023-03-31T01:43:16;3.23;;;1.73;;
4700;SDS011;8724;51.272;6.554;2023-03-31T01:45:53;2.73;;;1.13;;
4700;SDS011;8724;51.272;6.554;2023-03-31T01:48:30;2.30;;;1.50;;
4700;SDS011;8724;51.272;6.554;2023-03-31T01:51:09;4.10;;;1.33;;
4700;SDS011;8724;51.272;6.554;2023-03-31T01:53:47;3.80;;;1.37;;
4700;SDS011;8724;51.272;6.554;2023-03-31T01:56:24;3.77;;;1.30;;
4700;SDS011;8724;51.272;6.554;2023-03-31T01:58:57;5.13;;;1.43;;
4700;SDS011;8724;51.272;6.554;2023-03-31T02:01:31;2.23;;;1.03;;
4700;SDS011;8724;51.272;6.554;2023-03-31T02:04:06;6.73;;;1.90;;
4700;SDS011;8724;51.272;6.554;2023-03-31T02:06:39;3.37;;;1.63;;
4700;SDS011;8724;51.272;6.554;2023-03-31T02:09:11;4.33;;;1.90;;
4700;SDS011;8724;51.272;6.554;2023-03-31T02:11:44;4.97;;;2.13;;
4700;SDS011;8724;51.272;6.554;2023-03-31T02:14:15;7.83;;;2.20;;
4700;SDS011;8724;51.272;6.554;2023-03-31T02:16:48;5.40;;;2.00;;
4700;SDS011;8724;51.272;6.554;2023-03-31T02:19:25;6.90;;;1.97;;
4700;SDS011;8724;51.272;6.554;2023-03-31T02:21:56;6.40;;;1.87;;
4700;SDS011;8724;51.272;6.554;2023-03-31T02:24:27;4.37;;;2.10;;
4700;SDS011;8724;51.272;6.554;2023-03-31T02:26:59;9.27;;;2.40;;
4700;SDS011;8724;51.272;6.554;2023-03-31T02:29:32;7.93;;;2.90;;
4700;SDS011;8724;51.272;6.554;2023-03-31T02:32:02;5.60;;;3.00;;
4700;SDS011;8724;51.272;6.554;2023-03-31T02:34:34;8.57;;;2.50;;
4700;SDS011;8724;51.272;6.554;2023-03-31T02:37:02;5.90;;;2.37;;
4700;SDS011;8724;51.272;6.554;2023-03-31T02:39:32;7.20;;;2.40;;
4700;SDS011;8724;51.272;6.554;2023-03-31T02:42:03;8.40;;;3.13;;
4700;SDS011;8724;51.272;6.554;2023-03-31T02:44:33;8.37;;;2.30;;
4700;SDS011;8724;51.272;6.554;2023-03-31T02:47:03;8.47;;;2.77;;
4700;SDS011;8724;51.272;6.554;2023-03-31T02:49:34;9.90;;;2.33;;
4700;SDS011;8724;51.272;6.554;2023-03-31T02:52:11;9.03;;;2.40;;
4700;SDS011;8724;51.272;6.554;2023-03-31T02:55:08;7.43;;;2.43;;
4700;SDS011;8724;51.272;6.554;2023-03-31T03:01:00;9.47;;;2.30;;
4700;SDS011;8724;51.272;6.554;2023-03-31T03:03:42;6.80;;;2.53;;
4700;SDS011;8724;51.272;6.554;2023-03-31T03:06:26;6.90;;;2.53;;
4700;SDS011;8724;51.272;6.554;2023-03-31T03:09:18;4.50;;;1.80;;
4700;SDS011;8724;51.272;6.554;2023-03-31T03:11:58;3.67;;;1.37;;
4700;SDS011;8724;51.272;6.554;2023-03-31T03:14:35;6.90;;;1.80;;
4700;SDS011;8724;51.272;6.554;2023-03-31T03:17:11;7.33;;;2.30;;
4700;SDS011;8724;51.272;6.554;2023-03-31T03:19:49;3.40;;;1.70;;
4700;SDS011;8724;51.272;6.554;2023-03-31T03:22:19;7.47;;;2.13;;
4700;SDS011;8724;51.272;6.554;2023-03-31T03:24:48;9.13;;;2.63;;
4700;SDS011;8724;51.272;6.554;2023-03-31T03:27:17;4.23;;;1.80;;
4700;SDS011;8724;51.272;6.554;2023-03-31T03:29:49;2.67;;;1.70;;
4700;SDS011;8724;51.272;6.554;2023-03-31T03:32:18;6.37;;;2.37;;
4700;SDS011;8724;51.272;6.554;2023-03-31T03:34:46;3.43;;;2.00;;
4700;SDS011;8724;51.272;6.554;2023-03-31T03:37:14;6.63;;;2.63;;
4700;SDS011;8724;51.272;6.554;2023-03-31T03:39:43;5.20;;;2.07;;
4700;SDS011;8724;51.272;6.554;2023-03-31T03:42:11;5.90;;;2.10;;
4700;SDS011;8724;51.272;6.554;2023-03-31T03:44:39;5.20;;;2.07;;
4700;SDS011;8724;51.272;6.554;2023-03-31T03:47:09;8.73;;;2.37;;
4700;SDS011;8724;51.272;6.554;2023-03-31T03:49:38;2.87;;;1.60;;
4700;SDS011;8724;51.272;6.554;2023-03-31T03:52:06;4.67;;;1.90;;
4700;SDS011;8724;51.272;6.554;2023-03-31T03:54:35;8.17;;;2.50;;
4700;SDS011;8724;51.272;6.554;2023-03-31T03:57:03;8.23;;;1.97;;
4700;SDS011;8724;51.272;6.554;2023-03-31T03:59:32;3.73;;;1.93;;
4700;SDS011;8724;51.272;6.554;2023-03-31T04:02:01;7.03;;;2.03;;
4700;SDS011;8724;51.272;6.554;2023-03-31T04:04:31;5.10;;;1.83;;
4700;SDS011;8724;51.272;6.554;2023-03-31T04:06:59;4.40;;;1.90;;
4700;SDS011;8724;51.272;6.554;2023-03-31T04:09:27;3.10;;;1.53;;
4700;SDS011;8724;51.272;6.554;2023-03-31T04:11:56;3.93;;;1.97;;
4700;SDS011;8724;51.272;6.554;2023-03-31T04:14:24;3.87;;;2.57;;
4700;SDS011;8724;51.272;6.554;2023-03-31T04:16:52;5.83;;;2.03;;
4700;SDS011;8724;51.272;6.554;2023-03-31T04:19:22;8.30;;;2.00;;
4700;SDS011;8724;51.272;6.554;2023-03-31T04:21:52;5.80;;;2.10;;
4700;SDS011;8724;51.272;6.554;2023-03-31T04:24:28;3.40;;;1.40;;
4700;SDS011;8724;51.272;6.554;2023-03-31T04:26:59;3.93;;;1.70;;
4700;SDS011;8724;51.272;6.554;2023-03-31T04:29:28;3.93;;;1.70;;
4700;SDS011;8724;51.272;6.554;2023-03-31T04:31:59;3.83;;;2.00;;
4700;SDS011;8724;51.272;6.554;2023-03-31T04:34:28;4.83;;;1.90;;
4700;SDS011;8724;51.272;6.554;2023-03-31T04:37:03;2.07;;;1.40;;
4700;SDS011;8724;51.272;6.554;2023-03-31T04:39:31;2.90;;;1.57;;
4700;SDS011;8724;51.272;6.554;2023-03-31T04:42:00;6.33;;;1.60;;
4700;SDS011;8724;51.272;6.554;2023-03-31T04:44:29;4.30;;;1.40;;
4700;SDS011;8724;51.272;6.554;2023-03-31T04:46:57;3.67;;;1.40;;
4700;SDS011;8724;51.272;6.554;2023-03-31T04:49:28;2.50;;;1.57;;
4700;SDS011;8724;51.272;6.554;2023-03-31T04:51:59;2.40;;;1.70;;
4700;SDS011;8724;51.272;6.554;2023-03-31T04:54:29;2.90;;;1.47;;
4700;SDS011;8724;51.272;6.554;2023-03-31T04:56:57;4.93;;;1.50;;
4700;SDS011;8724;51.272;6.554;2023-03-31T04:59:25;4.30;;;1.53;;
4700;SDS011;8724;51.272;6.554;2023-03-31T05:01:54;2.73;;;2.13;;
4700;SDS011;8724;51.272;6.554;2023-03-31T05:04:22;3.43;;;1.70;;
4700;SDS011;8724;51.272;6.554;2023-03-31T05:06:51;5.50;;;2.10;;
4700;SDS011;8724;51.272;6.554;2023-03-31T05:09:20;24.03;;;16.87;;
4700;SDS011;8724;51.272;6.554;2023-03-31T05:11:50;34.63;;;25.27;;
4700;SDS011;8724;51.272;6.554;2023-03-31T05:14:19;49.70;;;35.57;;
4700;SDS011;8724;51.272;6.554;2023-03-31T05:16:47;42.53;;;29.83;;
4700;SDS011;8724;51.272;6.554;2023-03-31T05:19:16;22.73;;;18.47;;
4700;SDS011;8724;51.272;6.554;2023-03-31T05:21:44;18.27;;;13.77;;
4700;SDS011;8724;51.272;6.554;2023-03-31T05:24:12;11.60;;;8.03;;
4700;SDS011;8724;51.272;6.554;2023-03-31T05:26:41;7.60;;;5.10;;
4700;SDS011;8724;51.272;6.554;2023-03-31T05:29:15;6.53;;;4.27;;
4700;SDS011;8724;51.272;6.554;2023-03-31T05:31:43;7.03;;;3.53;;
4700;SDS011;8724;51.272;6.554;2023-03-31T05:34:12;5.00;;;2.60;;
4700;SDS011;8724;51.272;6.554;2023-03-31T05:36:41;4.57;;;1.90;;
4700;SDS011;8724;51.272;6.554;2023-03-31T05:39:10;3.03;;;1.60;;
4700;SDS011;8724;51.272;6.554;2023-03-31T05:41:38;2.80;;;2.00;;
4700;SDS011;8724;51.272;6.554;2023-03-31T05:44:07;2.70;;;1.10;;
4700;SDS011;8724;51.272;6.554;2023-03-31T05:46:37;2.70;;;1.53;;
4700;SDS011;8724;51.272;6.554;2023-03-31T05:49:05;2.00;;;1.23;;
4700;SDS011;8724;51.272;6.554;2023-03-31T05:51:34;3.80;;;1.33;;
4700;SDS011;8724;51.272;6.554;2023-03-31T05:54:02;3.07;;;1.20;;
4700;SDS011;8724;51.272;6.554;2023-03-31T05:56:32;3.10;;;1.27;;
4700;SDS011;8724;51.272;6.554;2023-03-31T05:59:00;26.17;;;20.97;;
4700;SDS011;8724;51.272;6.554;2023-03-31T06:01:30;34.80;;;28.07;;
4700;SDS011;8724;51.272;6.554;2023-03-31T06:04:00;22.37;;;18.97;;
4700;SDS011;8724;51.272;6.554;2023-03-31T06:06:29;12.20;;;10.50;;
4700;SDS011;8724;51.272;6.554;2023-03-31T06:08:58;6.00;;;5.40;;
4700;SDS011;8724;51.272;6.554;2023-03-31T06:11:27;5.00;;;4.17;;
4700;SDS011;8724;51.272;6.554;2023-03-31T06:13:55;3.23;;;2.67;;
4700;SDS011;8724;51.272;6.554;2023-03-31T06:16:24;6.87;;;2.57;;
4700;SDS011;8724;51.272;6.554;2023-03-31T06:18:54;3.70;;;2.00;;
4700;SDS011;8724;51.272;6.554;2023-03-31T06:21:24;3.37;;;2.13;;
4700;SDS011;8724;51.272;6.554;2023-03-31T06:23:52;4.20;;;1.30;;
4700;SDS011;8724;51.272;6.554;2023-03-31T06:26:23;2.40;;;1.80;;
4700;SDS011;8724;51.272;6.554;2023-03-31T06:28:53;2.73;;;1.80;;
4700;SDS011;8724;51.272;6.554;2023-03-31T06:31:22;3.70;;;1.90;;
4700;SDS011;8724;51.272;6.554;2023-03-31T06:33:51;3.23;;;1.47;;
4700;SDS011;8724;51.272;6.554;2023-03-31T06:36:20;1.73;;;1.37;;
4700;SDS011;8724;51.272;6.554;2023-03-31T06:38:50;2.33;;;1.50;;
4700;SDS011;8724;51.272;6.554;2023-03-31T06:41:19;1.80;;;1.10;;
4700;SDS011;8724;51.272;6.554;2023-03-31T06:43:48;1.27;;;0.70;;
4700;SDS011;8724;51.272;6.554;2023-03-31T06:46:17;2.60;;;1.30;;
4700;SDS011;8724;51.272;6.554;2023-03-31T06:48:46;2.10;;;1.20;;
4700;SDS011;8724;51.272;6.554;2023-03-31T06:51:14;2.30;;;1.20;;
4700;SDS011;8724;51.272;6.554;2023-03-31T06:53:43;8.40;;;7.23;;
4700;SDS011;8724;51.272;6.554;2023-03-31T06:56:12;25.90;;;18.60;;
4700;SDS011;8724;51.272;6.554;2023-03-31T06:58:41;23.23;;;15.73;;
4700;SDS011;8724;51.272;6.554;2023-03-31T07:01:09;13.10;;;10.07;;
4700;SDS011;8724;51.272;6.554;2023-03-31T07:03:38;8.67;;;6.60;;
4700;SDS011;8724;51.272;6.554;2023-03-31T07:06:06;5.23;;;4.13;;
4700;SDS011;8724;51.272;6.554;2023-03-31T07:08:35;4.17;;;2.70;;
4700;SDS011;8724;51.272;6.554;2023-03-31T07:11:03;3.40;;;2.63;;
4700;SDS011;8724;51.272;6.554;2023-03-31T07:13:33;2.10;;;1.90;;
4700;SDS011;8724;51.272;6.554;2023-03-31T07:16:02;3.87;;;1.60;;
4700;SDS011;8724;51.272;6.554;2023-03-31T07:18:33;3.60;;;1.63;;
4700;SDS011;8724;51.272;6.554;2023-03-31T07:21:02;1.60;;;1.43;;
4700;SDS011;8724;51.272;6.554;2023-03-31T07:23:35;3.00;;;1.77;;
4700;SDS011;8724;51.272;6.554;2023-03-31T07:26:05;3.87;;;2.47;;
4700;SDS011;8724;51.272;6.554;2023-03-31T07:28:35;3.90;;;2.33;;
4700;SDS011;8724;51.272;6.554;2023-03-31T07:31:09;5.63;;;3.00;;
4700;SDS011;8724;51.272;6.554;2023-03-31T07:33:38;5.77;;;2.97;;
4700;SDS011;8724;51.272;6.554;2023-03-31T07:36:09;2.57;;;1.83;;
4700;SDS011;8724;51.272;6.554;2023-03-31T07:38:40;8.07;;;2.10;;
4700;SDS011;8724;51.272;6.554;2023-03-31T07:41:09;3.53;;;1.63;;
4700;SDS011;8724;51.272;6.554;2023-03-31T07:43:40;2.17;;;1.20;;
4700;SDS011;8724;51.272;6.554;2023-03-31T07:46:13;2.30;;;1.10;;
4700;SDS011;8724;51.272;6.554;2023-03-31T07:48:43;2.33;;;1.47;;
4700;SDS011;8724;51.272;6.554;2023-03-31T07:51:18;2.23;;;1.40;;
4700;SDS011;8724;51.272;6.554;2023-03-31T07:53:48;1.83;;;1.13;;
4700;SDS011;8724;51.272;6.554;2023-03-31T07:56:18;2.40;;;1.50;;
4700;SDS011;8724;51.272;6.554;2023-03-31T07:58:49;3.30;;;1.40;;
4700;SDS011;8724;51.272;6.554;2023-03-31T08:01:22;14.70;;;13.10;;
4700;SDS011;8724;51.272;6.554;2023-03-31T08:03:54;24.43;;;18.47;;
4700;SDS011;8724;51.272;6.554;2023-03-31T08:06:24;15.03;;;9.57;;
4700;SDS011;8724;51.272;6.554;2023-03-31T08:08:54;7.90;;;4.87;;
4700;SDS011;8724;51.272;6.554;2023-03-31T08:11:24;6.30;;;3.17;;
4700;SDS011;8724;51.272;6.554;2023-03-31T08:13:54;11.10;;;2.83;;
4700;SDS011;8724;51.272;6.554;2023-03-31T08:16:22;5.30;;;2.17;;
4700;SDS011;8724;51.272;6.554;2023-03-31T08:18:51;4.67;;;2.07;;
4700;SDS011;8724;51.272;6.554;2023-03-31T08:21:19;7.47;;;2.57;;
4700;SDS011;8724;51.272;6.554;2023-03-31T08:23:52;4.00;;;1.73;;
4700;SDS011;8724;51.272;6.554;2023-03-31T08:26:21;7.37;;;2.47;;
4700;SDS011;8724;51.272;6.554;2023-03-31T08:28:51;6.17;;;2.00;;
4700;SDS011;8724;51.272;6.554;2023-03-31T08:31:21;5.60;;;2.07;;
4700;SDS011;8724;51.272;6.554;2023-03-31T08:33:53;11.33;;;2.87;;
4700;SDS011;8724;51.272;6.554;2023-03-31T08:36:21;6.07;;;2.10;;
4700;SDS011;8724;51.272;6.554;2023-03-31T08:38:50;6.67;;;2.70;;
4700;SDS011;8724;51.272;6.554;2023-03-31T08:41:26;9.53;;;2.40;;
4700;SDS011;8724;51.272;6.554;2023-03-31T08:44:03;8.13;;;2.30;;
4700;SDS011;8724;51.272;6.554;2023-03-31T08:46:38;4.90;;;2.10;;
4700;SDS011;8724;51.272;6.554;2023-03-31T08:49:09;5.80;;;2.03;;
4700;SDS011;8724;51.272;6.554;2023-03-31T08:51:43;9.60;;;3.03;;
4700;SDS011;8724;51.272;6.554;2023-03-31T08:54:15;6.87;;;2.23;;
4700;SDS011;8724;51.272;6.554;2023-03-31T08:56:47;7.87;;;3.27;;
4700;SDS011;8724;51.272;6.554;2023-03-31T08:59:20;5.23;;;1.93;;
4700;SDS011;8724;51.272;6.554;2023-03-31T09:01:55;3.27;;;2.00;;
4700;SDS011;8724;51.272;6.554;2023-03-31T09:07:25;5.87;;;2.53;;
4700;SDS011;8724;51.272;6.554;2023-03-31T09:10:01;8.30;;;2.27;;
4700;SDS011;8724;51.272;6.554;2023-03-31T09:12:42;7.80;;;2.40;;
4700;SDS011;8724;51.272;6.554;2023-03-31T09:15:19;7.03;;;2.40;;
4700;SDS011;8724;51.272;6.554;2023-03-31T09:17:54;8.80;;;2.57;;
4700;SDS011;8724;51.272;6.554;2023-03-31T09:20:29;7.03;;;2.00;;
4700;SDS011;8724;51.272;6.554;2023-03-31T09:23:00;4.97;;;2.40;;
4700;SDS011;8724;51.272;6.554;2023-03-31T09:25:38;8.33;;;2.30;;
4700;SDS011;8724;51.272;6.554;2023-03-31T09:28:12;5.00;;;2.90;;
4700;SDS011;8724;51.272;6.554;2023-03-31T09:30:47;14.53;;;3.00;;
4700;SDS011;8724;51.272;6.554;2023-03-31T09:33:18;7.83;;;2.43;;
4700;SDS011;8724;51.272;6.554;2023-03-31T09:35:52;7.37;;;2.50;;
4700;SDS011;8724;51.272;6.554;2023-03-31T09:38:21;4.60;;;1.87;;
4700;SDS011;8724;51.272;6.554;2023-03-31T09:40:49;11.27;;;2.73;;
4700;SDS011;8724;51.272;6.554;2023-03-31T09:43:20;6.67;;;2.20;;
4700;SDS011;8724;51.272;6.554;2023-03-31T09:45:50;6.63;;;2.47;;
4700;SDS011;8724;51.272;6.554;2023-03-31T09:48:36;7.30;;;2.63;;
4700;SDS011;8724;51.272;6.554;2023-03-31T09:51:06;6.23;;;2.13;;
4700;SDS011;8724;51.272;6.554;2023-03-31T09:53:42;11.80;;;2.90;;
4700;SDS011;8724;51.272;6.554;2023-03-31T09:56:30;7.50;;;2.63;;
4700;SDS011;8724;51.272;6.554;2023-03-31T09:59:00;6.67;;;2.60;;
4700;SDS011;8724;51.272;6.554;2023-03-31T10:01:30;8.27;;;2.93;;
4700;SDS011;8724;51.272;6.554;2023-03-31T10:04:01;7.67;;;2.80;;
4700;SDS011;8724;51.272;6.554;2023-03-31T10:06:36;10.37;;;2.90;;
4700;SDS011;8724;51.272;6.554;2023-03-31T10:09:09;12.20;;;3.20;;
4700;SDS011;8724;51.272;6.554;2023-03-31T10:11:38;7.83;;;2.50;;
4700;SDS011;8724;51.272;6.554;2023-03-31T10:14:17;10.33;;;3.23;;
4700;SDS011;8724;51.272;6.554;2023-03-31T10:16:53;10.53;;;3.23;;
4700;SDS011;8724;51.272;6.554;2023-03-31T10:19:26;6.97;;;2.10;;
4700;SDS011;8724;51.272;6.554;2023-03-31T10:21:56;7.63;;;2.60;;
4700;SDS011;8724;51.272;6.554;2023-03-31T10:24:26;12.90;;;2.80;;
4700;SDS011;8724;51.272;6.554;2023-03-31T10:27:04;6.37;;;2.40;;
4700;SDS011;8724;51.272;6.554;2023-03-31T10:29:43;8.53;;;2.80;;
4700;SDS011;8724;51.272;6.554;2023-03-31T10:32:14;8.20;;;2.60;;
4700;SDS011;8724;51.272;6.554;2023-03-31T10:34:50;8.30;;;2.53;;
4700;SDS011;8724;51.272;6.554;2023-03-31T10:37:20;11.00;;;2.90;;
4700;SDS011;8724;51.272;6.554;2023-03-31T10:39:55;7.20;;;2.80;;
4700;SDS011;8724;51.272;6.554;2023-03-31T10:42:25;2.67;;;1.43;;
4700;SDS011;8724;51.272;6.554;2023-03-31T10:45:08;3.27;;;1.83;;
4700;SDS011;8724;51.272;6.554;2023-03-31T10:47:48;21.97;;;17.47;;
4700;SDS011;8724;51.272;6.554;2023-03-31T10:50:26;8.73;;;6.10;;
4700;SDS011;8724;51.272;6.554;2023-03-31T10:53:00;6.83;;;2.30;;
4700;SDS011;8724;51.272;6.554;2023-03-31T10:55:35;5.10;;;2.00;;
4700;SDS011;8724;51.272;6.554;2023-03-31T10:58:13;4.47;;;1.90;;
4700;SDS011;8724;51.272;6.554;2023-03-31T11:00:54;4.37;;;1.67;;
4700;SDS011;8724;51.272;6.554;2023-03-31T11:03:42;4.37;;;1.80;;
4700;SDS011;8724;51.272;6.554;2023-03-31T11:06:29;3.77;;;1.87;;
4700;SDS011;8724;51.272;6.554;2023-03-31T11:09:10;7.63;;;2.47;;
4700;SDS011;8724;51.272;6.554;2023-03-31T11:11:57;2.93;;;1.50;;
4700;SDS011;8724;51.272;6.554;2023-03-31T11:14:38;4.53;;;1.50;;
4700;SDS011;8724;51.272;6.554;2023-03-31T11:17:18;8.00;;;2.80;;
4700;SDS011;8724;51.272;6.554;2023-03-31T11:19:55;2.60;;;1.33;;
4700;SDS011;8724;51.272;6.554;2023-03-31T11:22:36;6.30;;;2.17;;
4700;SDS011;8724;51.272;6.554;2023-03-31T11:25:22;4.27;;;1.70;;
4700;SDS011;8724;51.272;6.554;2023-03-31T11:28:04;5.07;;;1.50;;
4700;SDS011;8724;51.272;6.554;2023-03-31T11:30:50;2.23;;;1.50;;
4700;SDS011;8724;51.272;6.554;2023-03-31T11:33:28;7.30;;;2.07;;
4700;SDS011;8724;51.272;6.554;2023-03-31T11:36:13;2.67;;;1.67;;
4700;SDS011;8724;51.272;6.554;2023-03-31T11:38:56;7.73;;;1.80;;
4700;SDS011;8724;51.272;6.554;2023-03-31T11:41:32;7.67;;;2.07;;
4700;SDS011;8724;51.272;6.554;2023-03-31T11:44:04;7.20;;;2.03;;
4700;SDS011;8724;51.272;6.554;2023-03-31T11:46:36;9.67;;;2.03;;
4700;SDS011;8724;51.272;6.554;2023-03-31T11:49:10;5.23;;;2.00;;
4700;SDS011;8724;51.272;6.554;2023-03-31T11:51:46;4.17;;;1.70;;
4700;SDS011;8724;51.272;6.554;2023-03-31T11:54:22;17.70;;;14.50;;
4700;SDS011;8724;51.272;6.554;2023-03-31T11:56:55;36.07;;;25.70;;
4700;SDS011;8724;51.272;6.554;2023-03-31T11:59:27;11.27;;;6.63;;
4700;SDS011;8724;51.272;6.554;2023-03-31T12:02:00;6.03;;;3.80;;
4700;SDS011;8724;51.272;6.554;2023-03-31T12:04:37;7.00;;;2.90;;
4700;SDS011;8724;51.272;6.554;2023-03-31T12:07:14;8.80;;;2.50;;
4700;SDS011;8724;51.272;6.554;2023-03-31T12:09:52;5.80;;;2.40;;
4700;SDS011;8724;51.272;6.554;2023-03-31T12:12:32;10.30;;;3.50;;
4700;SDS011;8724;51.272;6.554;2023-03-31T12:15:07;7.10;;;2.17;;
4700;SDS011;8724;51.272;6.554;2023-03-31T12:17:42;9.93;;;2.33;;
4700;SDS011;8724;51.272;6.554;2023-03-31T12:20:16;9.77;;;2.30;;
4700;SDS011;8724;51.272;6.554;2023-03-31T12:22:52;9.20;;;3.03;;
4700;SDS011;8724;51.272;6.554;2023-03-31T12:25:24;9.30;;;2.27;;
4700;SDS011;8724;51.272;6.554;2023-03-31T12:28:07;10.13;;;2.53;;
4700;SDS011;8724;51.272;6.554;2023-03-31T12:30:37;5.63;;;2.33;;
4700;SDS011;8724;51.272;6.554;2023-03-31T12:33:11;9.47;;;3.47;;
4700;SDS011;8724;51.272;6.554;2023-03-31T12:35:49;8.10;;;2.60;;
4700;SDS011;8724;51.272;6.554;2023-03-31T12:38:35;7.97;;;2.10;;
4700;SDS011;8724;51.272;6.554;2023-03-31T12:41:17;6.33;;;2.30;;
4700;SDS011;8724;51.272;6.554;2023-03-31T12:43:58;9.00;;;2.17;;
4700;SDS011;8724;51.272;6.554;2023-03-31T12:53:02;10.17;;;2.33;;
4700;SDS011;8724;51.272;6.554;2023-03-31T12:55:39;4.17;;;2.00;;
4700;SDS011;8724;51.272;6.554;2023-03-31T13:01:12;6.90;;;1.93;;
4700;SDS011;8724;51.272;6.554;2023-03-31T13:03:51;5.70;;;2.83;;
4700;SDS011;8724;51.272;6.554;2023-03-31T13:09:45;3.90;;;2.00;;
4700;SDS011;8724;51.272;6.554;2023-03-31T13:12:19;3.47;;;2.00;;
4700;SDS011;8724;51.272;6.554;2023-03-31T13:14:52;4.07;;;1.50;;
4700;SDS011;8724;51.272;6.554;2023-03-31T13:17:29;2.90;;;1.87;;
4700;SDS011;8724;51.272;6.554;2023-03-31T13:20:16;5.40;;;1.97;;
4700;SDS011;8724;51.272;6.554;2023-03-31T13:23:01;4.33;;;1.80;;
4700;SDS011;8724;51.272;6.554;2023-03-31T13:25:34;3.80;;;1.50;;
4700;SDS011;8724;51.272;6.554;2023-03-31T13:28:12;3.30;;;1.93;;
4700;SDS011;8724;51.272;6.554;2023-03-31T13:30:58;4.03;;;1.27;;
4700;SDS011;8724;51.272;6.554;2023-03-31T13:36:25;4.50;;;2.30;;
4700;SDS011;8724;51.272;6.554;2023-03-31T13:39:25;5.73;;;2.10;;
4700;SDS011;8724;51.272;6.554;2023-03-31T13:42:21;5.70;;;1.43;;
4700;SDS011;8724;51.272;6.554;2023-03-31T13:45:09;6.37;;;1.80;;
4700;SDS011;8724;51.272;6.554;2023-03-31T13:47:56;7.87;;;2.07;;
4700;SDS011;8724;51.272;6.554;2023-03-31T13:50:34;8.27;;;2.20;;
4700;SDS011;8724;51.272;6.554;2023-03-31T13:53:36;2.87;;;1.40;;
4700;SDS011;8724;51.272;6.554;2023-03-31T13:59:28;5.20;;;2.07;;
4700;SDS011;8724;51.272;6.554;2023-03-31T14:02:22;43.83;;;33.00;;
4700;SDS011;8724;51.272;6.554;2023-03-31T14:05:02;18.70;;;14.73;;
4700;SDS011;8724;51.272;6.554;2023-03-31T14:07:42;6.00;;;4.57;;
4700;SDS011;8724;51.272;6.554;2023-03-31T14:10:27;9.17;;;2.50;;
4700;SDS011;8724;51.272;6.554;2023-03-31T14:13:07;4.37;;;2.07;;
4700;SDS011;8724;51.272;6.554;2023-03-31T14:15:38;5.20;;;2.13;;
4700;SDS011;8724;51.272;6.554;2023-03-31T14:18:09;2.80;;;1.67;;
4700;SDS011;8724;51.272;6.554;2023-03-31T14:20:51;4.73;;;1.80;;
4700;SDS011;8724;51.272;6.554;2023-03-31T14:23:37;2.77;;;1.53;;
4700;SDS011;8724;51.272;6.554;2023-03-31T14:26:14;4.10;;;1.93;;
4700;SDS011;8724;51.272;6.554;2023-03-31T14:31:44;7.33;;;1.87;;
4700;SDS011;8724;51.272;6.554;2023-03-31T14:37:18;6.30;;;3.23;;
4700;SDS011;8724;51.272;6.554;2023-03-31T14:39:48;5.93;;;2.70;;
4700;SDS011;8724;51.272;6.554;2023-03-31T14:42:21;3.50;;;1.43;;
4700;SDS011;8724;51.272;6.554;2023-03-31T14:44:54;8.03;;;2.23;;
4700;SDS011;8724;51.272;6.554;2023-03-31T14:47:24;4.63;;;1.73;;
4700;SDS011;8724;51.272;6.554;2023-03-31T14:49:58;3.57;;;1.80;;
4700;SDS011;8724;51.272;6.554;2023-03-31T14:52:30;4.53;;;1.70;;
4700;SDS011;8724;51.272;6.554;2023-03-31T14:55:01;4.10;;;2.17;;
4700;SDS011;8724;51.272;6.554;2023-03-31T14:57:31;5.83;;;2.33;;
4700;SDS011;8724;51.272;6.554;2023-03-31T15:00:02;9.03;;;2.00;;
4700;SDS011;8724;51.272;6.554;2023-03-31T15:02:34;6.40;;;1.83;;
4700;SDS011;8724;51.272;6.554;2023-03-31T15:05:05;4.20;;;1.40;;
4700;SDS011;8724;51.272;6.554;2023-03-31T15:07:38;4.27;;;2.57;;
4700;SDS011;8724;51.272;6.554;2023-03-31T15:10:11;7.13;;;2.13;;
4700;SDS011;8724;51.272;6.554;2023-03-31T15:12:45;4.90;;;1.73;;
4700;SDS011;8724;51.272;6.554;2023-03-31T15:15:14;4.80;;;2.10;;
4700;SDS011;8724;51.272;6.554;2023-03-31T15:17:45;5.10;;;2.03;;
4700;SDS011;8724;51.272;6.554;2023-03-31T15:20:23;7.17;;;2.70;;
4700;SDS011;8724;51.272;6.554;2023-03-31T15:22:57;5.40;;;1.77;;
4700;SDS011;8724;51.272;6.554;2023-03-31T15:25:28;28.10;;;21.77;;
4700;SDS011;8724;51.272;6.554;2023-03-31T15:28:02;24.40;;;17.77;;
4700;SDS011;8724;51.272;6.554;2023-03-31T15:30:33;9.97;;;4.90;;
4700;SDS011;8724;51.272;6.554;2023-03-31T15:33:04;4.13;;;2.07;;
4700;SDS011;8724;51.272;6.554;2023-03-31T15:35:45;3.07;;;1.43;;
4700;SDS011;8724;51.272;6.554;2023-03-31T15:38:15;4.67;;;1.63;;
4700;SDS011;8724;51.272;6.554;2023-03-31T15:40:44;1.53;;;1.00;;
4700;SDS011;8724;51.272;6.554;2023-03-31T15:43:25;3.40;;;1.30;;
4700;SDS011;8724;51.272;6.554;2023-03-31T15:45:55;3.70;;;1.40;;
4700;SDS011;8724;51.272;6.554;2023-03-31T15:48:26;3.80;;;1.30;;
4700;SDS011;8724;51.272;6.554;2023-03-31T15:50:59;1.77;;;1.10;;
4700;SDS011;8724;51.272;6.554;2023-03-31T15:53:31;2.47;;;1.37;;
4700;SDS011;8724;51.272;6.554;2023-03-31T15:56:04;2.23;;;1.13;;
4700;SDS011;8724;51.272;6.554;2023-03-31T15:58:46;2.37;;;1.37;;
4700;SDS011;8724;51.272;6.554;2023-03-31T16:01:23;3.33;;;1.50;;
4700;SDS011;8724;51.272;6.554;2023-03-31T16:03:58;4.07;;;1.23;;
4700;SDS011;8724;51.272;6.554;2023-03-31T16:06:31;2.00;;;1.13;;
4700;SDS011;8724;51.272;6.554;2023-03-31T16:09:07;1.57;;;1.13;;
4700;SDS011;8724;51.272;6.554;2023-03-31T16:11:38;2.50;;;1.10;;
4700;SDS011;8724;51.272;6.554;2023-03-31T16:14:12;1.23;;;1.00;;
4700;SDS011;8724;51.272;6.554;2023-03-31T16:16:47;3.13;;;1.30;;
4700;SDS011;8724;51.272;6.554;2023-03-31T16:19:19;2.13;;;1.10;;
4700;SDS011;8724;51.272;6.554;2023-03-31T16:21:52;3.97;;;1.50;;
4700;SDS011;8724;51.272;6.554;2023-03-31T16:24:28;3.00;;;1.63;;
4700;SDS011;8724;51.272;6.554;2023-03-31T16:26:59;3.57;;;1.20;;
4700;SDS011;8724;51.272;6.554;2023-03-31T16:29:32;3.40;;;1.30;;
4700;SDS011;8724;51.272;6.554;2023-03-31T16:32:06;1.53;;;1.00;;